sensor_id;sensor_type;location;lat;lon;timestamp;P1;durP1;ratioP1;P2;durP2;ratioP2
54823;SDS011;40724;53.196;5.980;2024-02-23T00:02:04;3.67;;;1.50;;
54823;SDS011;40724;53.196;5.980;2024-02-23T00:04:30;3.50;;;1.27;;
54823;SDS011;40724;53.196;5.980;2024-02-23T00:06:56;3.45;;;1.10;;
54823;SDS011;40724;53.196;5.980;2024-02-23T00:09:22;2.35;;;1.35;;
54823;SDS011;40724;53.196;5.980;2024-02-23T00:11:49;3.15;;;1.00;;
54823;SDS011;40724;53.196;5.980;2024-02-23T00:14:15;4.28;;;1.55;;
54823;SDS011;40724;53.196;5.980;2024-02-23T00:16:44;6.75;;;2.00;;
54823;SDS011;40724;53.196;5.980;2024-02-23T00:19:10;3.88;;;1.80;;
54823;SDS011;40724;53.196;5.980;2024-02-23T00:21:36;8.15;;;2.33;;
54823;SDS011;40724;53.196;5.980;2024-02-23T00:24:03;10.65;;;2.65;;
54823;SDS011;40724;53.196;5.980;2024-02-23T00:26:30;9.07;;;2.55;;
54823;SDS011;40724;53.196;5.980;2024-02-23T00:28:56;4.78;;;1.70;;
54823;SDS011;40724;53.196;5.980;2024-02-23T00:31:22;3.88;;;1.73;;
54823;SDS011;40724;53.196;5.980;2024-02-23T00:33:48;6.40;;;1.60;;
54823;SDS011;40724;53.196;5.980;2024-02-23T00:36:13;2.92;;;1.00;;
54823;SDS011;40724;53.196;5.980;2024-02-23T00:38:39;5.32;;;1.33;;
54823;SDS011;40724;53.196;5.980;2024-02-23T00:41:05;4.40;;;1.90;;
54823;SDS011;40724;53.196;5.980;2024-02-23T00:43:38;5.63;;;1.77;;
54823;SDS011;40724;53.196;5.980;2024-02-23T00:46:04;4.85;;;1.75;;
54823;SDS011;40724;53.196;5.980;2024-02-23T00:48:30;5.88;;;2.15;;
54823;SDS011;40724;53.196;5.980;2024-02-23T00:50:56;5.00;;;1.50;;
54823;SDS011;40724;53.196;5.980;2024-02-23T00:53:22;5.35;;;1.83;;
54823;SDS011;40724;53.196;5.980;2024-02-23T00:55:47;5.28;;;2.20;;
54823;SDS011;40724;53.196;5.980;2024-02-23T00:58:13;7.95;;;2.80;;
54823;SDS011;40724;53.196;5.980;2024-02-23T01:00:41;5.05;;;1.98;;
54823;SDS011;40724;53.196;5.980;2024-02-23T01:03:07;11.60;;;2.10;;
54823;SDS011;40724;53.196;5.980;2024-02-23T01:05:33;7.93;;;2.10;;
54823;SDS011;40724;53.196;5.980;2024-02-23T01:07:58;7.57;;;2.75;;
54823;SDS011;40724;53.196;5.980;2024-02-23T01:10:24;8.85;;;3.10;;
54823;SDS011;40724;53.196;5.980;2024-02-23T01:12:50;13.38;;;3.53;;
54823;SDS011;40724;53.196;5.980;2024-02-23T01:15:15;15.77;;;3.47;;
54823;SDS011;40724;53.196;5.980;2024-02-23T01:17:41;9.50;;;3.20;;
54823;SDS011;40724;53.196;5.980;2024-02-23T01:20:07;7.43;;;2.83;;
54823;SDS011;40724;53.196;5.980;2024-02-23T01:22:33;10.10;;;3.08;;
54823;SDS011;40724;53.196;5.980;2024-02-23T01:24:59;13.88;;;3.15;;
54823;SDS011;40724;53.196;5.980;2024-02-23T01:27:25;8.80;;;2.80;;
54823;SDS011;40724;53.196;5.980;2024-02-23T01:29:50;13.15;;;3.55;;
54823;SDS011;40724;53.196;5.980;2024-02-23T01:32:16;10.00;;;3.05;;
54823;SDS011;40724;53.196;5.980;2024-02-23T01:34:42;13.63;;;3.05;;
54823;SDS011;40724;53.196;5.980;2024-02-23T01:37:08;6.80;;;2.45;;
54823;SDS011;40724;53.196;5.980;2024-02-23T01:39:34;6.38;;;2.97;;
54823;SDS011;40724;53.196;5.980;2024-02-23T01:41:59;9.15;;;2.53;;
54823;SDS011;40724;53.196;5.980;2024-02-23T01:44:25;13.20;;;3.33;;
54823;SDS011;40724;53.196;5.980;2024-02-23T01:46:51;10.80;;;2.85;;
54823;SDS011;40724;53.196;5.980;2024-02-23T01:49:17;9.95;;;3.28;;
54823;SDS011;40724;53.196;5.980;2024-02-23T01:51:43;12.40;;;3.03;;
54823;SDS011;40724;53.196;5.980;2024-02-23T01:54:09;9.70;;;3.10;;
54823;SDS011;40724;53.196;5.980;2024-02-23T01:56:35;9.50;;;3.42;;
54823;SDS011;40724;53.196;5.980;2024-02-23T01:59:04;6.88;;;3.00;;
54823;SDS011;40724;53.196;5.980;2024-02-23T02:01:32;13.77;;;3.03;;
54823;SDS011;40724;53.196;5.980;2024-02-23T02:03:58;9.50;;;3.08;;
54823;SDS011;40724;53.196;5.980;2024-02-23T02:06:24;11.38;;;2.80;;
54823;SDS011;40724;53.196;5.980;2024-02-23T02:08:50;6.85;;;2.60;;
54823;SDS011;40724;53.196;5.980;2024-02-23T02:11:16;10.05;;;2.85;;
54823;SDS011;40724;53.196;5.980;2024-02-23T02:13:42;9.57;;;2.30;;
54823;SDS011;40724;53.196;5.980;2024-02-23T02:16:08;5.50;;;2.88;;
54823;SDS011;40724;53.196;5.980;2024-02-23T02:18:34;11.57;;;3.08;;
54823;SDS011;40724;53.196;5.980;2024-02-23T02:21:00;8.75;;;3.10;;
54823;SDS011;40724;53.196;5.980;2024-02-23T02:23:26;6.65;;;2.95;;
54823;SDS011;40724;53.196;5.980;2024-02-23T02:25:55;11.30;;;3.38;;
54823;SDS011;40724;53.196;5.980;2024-02-23T02:28:22;9.40;;;3.78;;
54823;SDS011;40724;53.196;5.980;2024-02-23T02:30:49;7.20;;;2.42;;
54823;SDS011;40724;53.196;5.980;2024-02-23T02:33:15;10.82;;;3.67;;
54823;SDS011;40724;53.196;5.980;2024-02-23T02:35:40;7.82;;;2.28;;
54823;SDS011;40724;53.196;5.980;2024-02-23T02:38:06;5.13;;;1.95;;
54823;SDS011;40724;53.196;5.980;2024-02-23T02:40:33;5.45;;;2.35;;
54823;SDS011;40724;53.196;5.980;2024-02-23T02:42:58;14.25;;;3.50;;
54823;SDS011;40724;53.196;5.980;2024-02-23T02:45:24;5.85;;;2.63;;
54823;SDS011;40724;53.196;5.980;2024-02-23T02:47:50;7.20;;;2.78;;
54823;SDS011;40724;53.196;5.980;2024-02-23T02:50:15;13.30;;;2.78;;
54823;SDS011;40724;53.196;5.980;2024-02-23T02:52:41;9.25;;;3.10;;
54823;SDS011;40724;53.196;5.980;2024-02-23T02:55:07;7.40;;;2.28;;
54823;SDS011;40724;53.196;5.980;2024-02-23T02:57:34;4.82;;;2.40;;
54823;SDS011;40724;53.196;5.980;2024-02-23T03:00:01;10.10;;;2.40;;
54823;SDS011;40724;53.196;5.980;2024-02-23T03:02:31;5.40;;;2.72;;
54823;SDS011;40724;53.196;5.980;2024-02-23T03:04:57;6.53;;;2.72;;
54823;SDS011;40724;53.196;5.980;2024-02-23T03:07:23;9.27;;;3.08;;
54823;SDS011;40724;53.196;5.980;2024-02-23T03:09:49;8.52;;;2.08;;
54823;SDS011;40724;53.196;5.980;2024-02-23T03:12:16;5.82;;;2.72;;
54823;SDS011;40724;53.196;5.980;2024-02-23T03:14:42;12.43;;;3.65;;
54823;SDS011;40724;53.196;5.980;2024-02-23T03:17:08;6.80;;;2.28;;
54823;SDS011;40724;53.196;5.980;2024-02-23T03:19:35;7.82;;;2.50;;
54823;SDS011;40724;53.196;5.980;2024-02-23T03:22:01;8.68;;;3.85;;
54823;SDS011;40724;53.196;5.980;2024-02-23T03:24:28;9.07;;;3.20;;
54823;SDS011;40724;53.196;5.980;2024-02-23T03:26:54;6.78;;;2.38;;
54823;SDS011;40724;53.196;5.980;2024-02-23T03:29:21;7.00;;;2.03;;
54823;SDS011;40724;53.196;5.980;2024-02-23T03:31:50;5.50;;;2.22;;
54823;SDS011;40724;53.196;5.980;2024-02-23T03:34:16;6.65;;;2.35;;
54823;SDS011;40724;53.196;5.980;2024-02-23T03:36:42;5.78;;;3.13;;
54823;SDS011;40724;53.196;5.980;2024-02-23T03:39:08;8.70;;;2.45;;
54823;SDS011;40724;53.196;5.980;2024-02-23T03:41:35;16.83;;;3.50;;
54823;SDS011;40724;53.196;5.980;2024-02-23T03:44:01;4.47;;;2.67;;
54823;SDS011;40724;53.196;5.980;2024-02-23T03:46:27;9.48;;;2.95;;
54823;SDS011;40724;53.196;5.980;2024-02-23T03:48:53;9.40;;;2.17;;
54823;SDS011;40724;53.196;5.980;2024-02-23T03:51:20;4.97;;;1.88;;
54823;SDS011;40724;53.196;5.980;2024-02-23T03:53:46;10.35;;;3.25;;
54823;SDS011;40724;53.196;5.980;2024-02-23T03:56:12;6.55;;;2.80;;
54823;SDS011;40724;53.196;5.980;2024-02-23T03:58:38;5.50;;;1.98;;
54823;SDS011;40724;53.196;5.980;2024-02-23T04:01:04;7.80;;;2.20;;
54823;SDS011;40724;53.196;5.980;2024-02-23T04:03:30;10.50;;;2.63;;
54823;SDS011;40724;53.196;5.980;2024-02-23T04:05:56;8.23;;;2.33;;
54823;SDS011;40724;53.196;5.980;2024-02-23T04:08:22;6.43;;;2.28;;
54823;SDS011;40724;53.196;5.980;2024-02-23T04:10:48;8.63;;;2.40;;
54823;SDS011;40724;53.196;5.980;2024-02-23T04:13:14;6.53;;;2.47;;
54823;SDS011;40724;53.196;5.980;2024-02-23T04:15:43;9.20;;;3.42;;
54823;SDS011;40724;53.196;5.980;2024-02-23T04:18:09;7.95;;;2.88;;
54823;SDS011;40724;53.196;5.980;2024-02-23T04:20:35;7.30;;;3.03;;
54823;SDS011;40724;53.196;5.980;2024-02-23T04:23:01;11.75;;;2.20;;
54823;SDS011;40724;53.196;5.980;2024-02-23T04:25:28;6.20;;;2.30;;
54823;SDS011;40724;53.196;5.980;2024-02-23T04:27:54;8.75;;;2.50;;
54823;SDS011;40724;53.196;5.980;2024-02-23T04:30:20;5.63;;;1.85;;
54823;SDS011;40724;53.196;5.980;2024-02-23T04:32:46;5.18;;;2.10;;
54823;SDS011;40724;53.196;5.980;2024-02-23T04:35:12;23.48;;;4.05;;
54823;SDS011;40724;53.196;5.980;2024-02-23T04:37:39;8.88;;;2.58;;
54823;SDS011;40724;53.196;5.980;2024-02-23T04:40:05;9.57;;;2.50;;
54823;SDS011;40724;53.196;5.980;2024-02-23T04:42:32;6.25;;;2.28;;
54823;SDS011;40724;53.196;5.980;2024-02-23T04:44:58;5.85;;;2.45;;
54823;SDS011;40724;53.196;5.980;2024-02-23T04:47:24;9.85;;;1.85;;
54823;SDS011;40724;53.196;5.980;2024-02-23T04:49:50;6.53;;;1.92;;
54823;SDS011;40724;53.196;5.980;2024-02-23T04:52:16;13.55;;;3.53;;
54823;SDS011;40724;53.196;5.980;2024-02-23T04:54:42;7.35;;;2.45;;
54823;SDS011;40724;53.196;5.980;2024-02-23T04:57:08;7.88;;;2.85;;
54823;SDS011;40724;53.196;5.980;2024-02-23T04:59:34;8.35;;;2.05;;
54823;SDS011;40724;53.196;5.980;2024-02-23T05:02:00;5.82;;;2.13;;
54823;SDS011;40724;53.196;5.980;2024-02-23T05:04:26;4.70;;;1.58;;
54823;SDS011;40724;53.196;5.980;2024-02-23T05:06:53;5.25;;;2.58;;
54823;SDS011;40724;53.196;5.980;2024-02-23T05:09:19;8.18;;;2.17;;
54823;SDS011;40724;53.196;5.980;2024-02-23T05:11:45;6.97;;;1.52;;
54823;SDS011;40724;53.196;5.980;2024-02-23T05:14:12;9.38;;;2.60;;
54823;SDS011;40724;53.196;5.980;2024-02-23T05:16:38;7.35;;;2.20;;
54823;SDS011;40724;53.196;5.980;2024-02-23T05:19:04;8.98;;;2.72;;
54823;SDS011;40724;53.196;5.980;2024-02-23T05:21:30;8.55;;;2.72;;
54823;SDS011;40724;53.196;5.980;2024-02-23T05:23:57;4.28;;;2.47;;
54823;SDS011;40724;53.196;5.980;2024-02-23T05:26:23;6.68;;;2.00;;
54823;SDS011;40724;53.196;5.980;2024-02-23T05:28:49;16.77;;;2.40;;
54823;SDS011;40724;53.196;5.980;2024-02-23T05:31:15;9.23;;;1.73;;
54823;SDS011;40724;53.196;5.980;2024-02-23T05:33:42;4.35;;;2.03;;
54823;SDS011;40724;53.196;5.980;2024-02-23T05:36:08;10.35;;;2.85;;
54823;SDS011;40724;53.196;5.980;2024-02-23T05:38:34;6.45;;;1.90;;
54823;SDS011;40724;53.196;5.980;2024-02-23T05:41:00;7.57;;;2.63;;
54823;SDS011;40724;53.196;5.980;2024-02-23T05:43:26;6.18;;;1.83;;
54823;SDS011;40724;53.196;5.980;2024-02-23T05:45:52;5.18;;;2.15;;
54823;SDS011;40724;53.196;5.980;2024-02-23T05:48:22;5.60;;;2.10;;
54823;SDS011;40724;53.196;5.980;2024-02-23T05:50:48;5.47;;;1.85;;
54823;SDS011;40724;53.196;5.980;2024-02-23T05:53:14;11.32;;;2.67;;
54823;SDS011;40724;53.196;5.980;2024-02-23T05:55:40;6.47;;;2.20;;
54823;SDS011;40724;53.196;5.980;2024-02-23T05:58:06;7.50;;;1.90;;
54823;SDS011;40724;53.196;5.980;2024-02-23T06:00:33;4.03;;;2.05;;
54823;SDS011;40724;53.196;5.980;2024-02-23T06:02:59;6.45;;;2.20;;
54823;SDS011;40724;53.196;5.980;2024-02-23T06:05:26;4.40;;;1.85;;
54823;SDS011;40724;53.196;5.980;2024-02-23T06:07:51;4.45;;;2.35;;
54823;SDS011;40724;53.196;5.980;2024-02-23T06:10:17;4.40;;;2.25;;
54823;SDS011;40724;53.196;5.980;2024-02-23T06:12:43;10.50;;;2.53;;
54823;SDS011;40724;53.196;5.980;2024-02-23T06:15:09;3.90;;;1.95;;
54823;SDS011;40724;53.196;5.980;2024-02-23T06:17:34;9.13;;;3.13;;
54823;SDS011;40724;53.196;5.980;2024-02-23T06:20:00;6.38;;;2.53;;
54823;SDS011;40724;53.196;5.980;2024-02-23T06:22:26;6.90;;;3.15;;
54823;SDS011;40724;53.196;5.980;2024-02-23T06:24:52;8.82;;;3.60;;
54823;SDS011;40724;53.196;5.980;2024-02-23T06:27:19;7.72;;;3.58;;
54823;SDS011;40724;53.196;5.980;2024-02-23T06:29:47;7.47;;;3.42;;
54823;SDS011;40724;53.196;5.980;2024-02-23T06:32:13;15.32;;;3.08;;
54823;SDS011;40724;53.196;5.980;2024-02-23T06:34:39;7.47;;;2.40;;
54823;SDS011;40724;53.196;5.980;2024-02-23T06:37:05;12.23;;;3.17;;
54823;SDS011;40724;53.196;5.980;2024-02-23T06:39:32;9.40;;;3.35;;
54823;SDS011;40724;53.196;5.980;2024-02-23T06:41:58;8.75;;;3.33;;
54823;SDS011;40724;53.196;5.980;2024-02-23T06:44:27;7.65;;;2.95;;
54823;SDS011;40724;53.196;5.980;2024-02-23T06:46:53;7.72;;;3.20;;
54823;SDS011;40724;53.196;5.980;2024-02-23T06:49:19;6.07;;;2.60;;
54823;SDS011;40724;53.196;5.980;2024-02-23T06:51:45;6.53;;;3.47;;
54823;SDS011;40724;53.196;5.980;2024-02-23T06:54:11;5.70;;;2.80;;
54823;SDS011;40724;53.196;5.980;2024-02-23T06:56:37;6.70;;;3.25;;
54823;SDS011;40724;53.196;5.980;2024-02-23T06:59:03;10.43;;;4.07;;
54823;SDS011;40724;53.196;5.980;2024-02-23T07:01:31;10.73;;;4.00;;
54823;SDS011;40724;53.196;5.980;2024-02-23T07:04:00;9.20;;;3.75;;
54823;SDS011;40724;53.196;5.980;2024-02-23T07:06:26;7.70;;;3.42;;
54823;SDS011;40724;53.196;5.980;2024-02-23T07:08:55;18.30;;;4.70;;
54823;SDS011;40724;53.196;5.980;2024-02-23T07:11:21;8.52;;;3.47;;
54823;SDS011;40724;53.196;5.980;2024-02-23T07:13:47;9.98;;;3.47;;
54823;SDS011;40724;53.196;5.980;2024-02-23T07:16:14;10.93;;;5.10;;
54823;SDS011;40724;53.196;5.980;2024-02-23T07:18:40;10.63;;;4.32;;
54823;SDS011;40724;53.196;5.980;2024-02-23T07:21:07;11.30;;;3.75;;
54823;SDS011;40724;53.196;5.980;2024-02-23T07:23:33;6.15;;;3.95;;
54823;SDS011;40724;53.196;5.980;2024-02-23T07:25:59;13.18;;;4.18;;
54823;SDS011;40724;53.196;5.980;2024-02-23T07:28:25;8.48;;;4.05;;
54823;SDS011;40724;53.196;5.980;2024-02-23T07:30:51;10.23;;;4.05;;
54823;SDS011;40724;53.196;5.980;2024-02-23T07:33:18;5.90;;;3.50;;
54823;SDS011;40724;53.196;5.980;2024-02-23T07:35:44;6.97;;;3.78;;
54823;SDS011;40724;53.196;5.980;2024-02-23T07:38:10;6.38;;;3.40;;
54823;SDS011;40724;53.196;5.980;2024-02-23T07:40:36;7.93;;;4.32;;
54823;SDS011;40724;53.196;5.980;2024-02-23T07:43:02;7.53;;;2.75;;
54823;SDS011;40724;53.196;5.980;2024-02-23T07:45:29;14.30;;;4.75;;
54823;SDS011;40724;53.196;5.980;2024-02-23T07:47:55;7.75;;;3.08;;
54823;SDS011;40724;53.196;5.980;2024-02-23T07:50:21;9.15;;;3.15;;
54823;SDS011;40724;53.196;5.980;2024-02-23T07:52:47;7.93;;;3.80;;
54823;SDS011;40724;53.196;5.980;2024-02-23T07:55:13;6.28;;;3.30;;
54823;SDS011;40724;53.196;5.980;2024-02-23T07:57:39;6.35;;;3.83;;
54823;SDS011;40724;53.196;5.980;2024-02-23T08:00:06;6.60;;;2.88;;
54823;SDS011;40724;53.196;5.980;2024-02-23T08:02:35;8.50;;;3.75;;
54823;SDS011;40724;53.196;5.980;2024-02-23T08:05:01;8.80;;;3.60;;
54823;SDS011;40724;53.196;5.980;2024-02-23T08:07:27;7.82;;;3.38;;
54823;SDS011;40724;53.196;5.980;2024-02-23T08:09:55;9.93;;;3.67;;
54823;SDS011;40724;53.196;5.980;2024-02-23T08:12:22;7.15;;;3.75;;
54823;SDS011;40724;53.196;5.980;2024-02-23T08:14:48;5.32;;;3.30;;
54823;SDS011;40724;53.196;5.980;2024-02-23T08:17:18;9.65;;;4.32;;
54823;SDS011;40724;53.196;5.980;2024-02-23T08:19:44;7.35;;;3.78;;
54823;SDS011;40724;53.196;5.980;2024-02-23T08:22:10;6.85;;;4.45;;
54823;SDS011;40724;53.196;5.980;2024-02-23T08:24:37;6.18;;;4.53;;
54823;SDS011;40724;53.196;5.980;2024-02-23T08:27:03;8.85;;;4.70;;
54823;SDS011;40724;53.196;5.980;2024-02-23T08:29:29;8.77;;;4.32;;
54823;SDS011;40724;53.196;5.980;2024-02-23T08:31:55;7.57;;;4.40;;
54823;SDS011;40724;53.196;5.980;2024-02-23T08:34:21;6.57;;;4.03;;
54823;SDS011;40724;53.196;5.980;2024-02-23T08:36:47;7.88;;;3.65;;
54823;SDS011;40724;53.196;5.980;2024-02-23T08:39:13;9.40;;;4.07;;
54823;SDS011;40724;53.196;5.980;2024-02-23T08:41:39;5.25;;;4.07;;
54823;SDS011;40724;53.196;5.980;2024-02-23T08:44:06;6.05;;;3.58;;
54823;SDS011;40724;53.196;5.980;2024-02-23T08:46:32;7.85;;;3.90;;
54823;SDS011;40724;53.196;5.980;2024-02-23T08:48:58;8.93;;;4.00;;
54823;SDS011;40724;53.196;5.980;2024-02-23T08:51:24;6.43;;;3.35;;
54823;SDS011;40724;53.196;5.980;2024-02-23T08:53:50;5.28;;;3.45;;
54823;SDS011;40724;53.196;5.980;2024-02-23T08:56:16;4.35;;;3.33;;
54823;SDS011;40724;53.196;5.980;2024-02-23T08:58:42;7.25;;;3.47;;
54823;SDS011;40724;53.196;5.980;2024-02-23T09:01:08;12.63;;;4.05;;
54823;SDS011;40724;53.196;5.980;2024-02-23T09:03:35;7.10;;;3.25;;
54823;SDS011;40724;53.196;5.980;2024-02-23T09:06:01;8.20;;;3.45;;
54823;SDS011;40724;53.196;5.980;2024-02-23T09:08:28;4.43;;;2.92;;
54823;SDS011;40724;53.196;5.980;2024-02-23T09:10:54;5.05;;;2.78;;
54823;SDS011;40724;53.196;5.980;2024-02-23T09:13:21;10.45;;;2.85;;
54823;SDS011;40724;53.196;5.980;2024-02-23T09:15:47;6.38;;;2.50;;
54823;SDS011;40724;53.196;5.980;2024-02-23T09:18:13;5.07;;;2.67;;
54823;SDS011;40724;53.196;5.980;2024-02-23T09:20:39;5.68;;;2.60;;
54823;SDS011;40724;53.196;5.980;2024-02-23T09:23:05;6.70;;;2.50;;
54823;SDS011;40724;53.196;5.980;2024-02-23T09:25:31;6.22;;;2.45;;
54823;SDS011;40724;53.196;5.980;2024-02-23T09:27:57;5.10;;;2.70;;
54823;SDS011;40724;53.196;5.980;2024-02-23T09:30:24;2.97;;;2.42;;
54823;SDS011;40724;53.196;5.980;2024-02-23T09:32:50;4.45;;;1.90;;
54823;SDS011;40724;53.196;5.980;2024-02-23T09:35:16;5.68;;;2.42;;
54823;SDS011;40724;53.196;5.980;2024-02-23T09:37:42;5.32;;;2.05;;
54823;SDS011;40724;53.196;5.980;2024-02-23T09:40:08;8.43;;;2.47;;
54823;SDS011;40724;53.196;5.980;2024-02-23T09:42:35;5.80;;;2.55;;
54823;SDS011;40724;53.196;5.980;2024-02-23T09:45:03;5.20;;;2.28;;
54823;SDS011;40724;53.196;5.980;2024-02-23T09:47:30;14.30;;;2.83;;
54823;SDS011;40724;53.196;5.980;2024-02-23T09:49:57;7.18;;;2.05;;
54823;SDS011;40724;53.196;5.980;2024-02-23T09:52:24;3.90;;;2.25;;
54823;SDS011;40724;53.196;5.980;2024-02-23T09:54:50;3.58;;;1.83;;
54823;SDS011;40724;53.196;5.980;2024-02-23T09:57:16;6.18;;;2.30;;
54823;SDS011;40724;53.196;5.980;2024-02-23T09:59:44;3.58;;;2.05;;
54823;SDS011;40724;53.196;5.980;2024-02-23T10:02:14;4.05;;;2.10;;
54823;SDS011;40724;53.196;5.980;2024-02-23T10:04:41;3.50;;;1.70;;
54823;SDS011;40724;53.196;5.980;2024-02-23T10:07:14;5.75;;;2.08;;
54823;SDS011;40724;53.196;5.980;2024-02-23T10:09:41;4.25;;;1.75;;
54823;SDS011;40724;53.196;5.980;2024-02-23T10:12:07;9.30;;;2.55;;
54823;SDS011;40724;53.196;5.980;2024-02-23T10:14:33;4.72;;;1.90;;
54823;SDS011;40724;53.196;5.980;2024-02-23T10:16:59;8.20;;;2.45;;
54823;SDS011;40724;53.196;5.980;2024-02-23T10:19:27;5.75;;;1.95;;
54823;SDS011;40724;53.196;5.980;2024-02-23T10:21:54;4.03;;;1.85;;
54823;SDS011;40724;53.196;5.980;2024-02-23T10:24:22;4.70;;;2.10;;
54823;SDS011;40724;53.196;5.980;2024-02-23T10:26:49;4.43;;;2.08;;
54823;SDS011;40724;53.196;5.980;2024-02-23T10:29:15;4.10;;;1.75;;
54823;SDS011;40724;53.196;5.980;2024-02-23T10:31:41;5.63;;;2.08;;
54823;SDS011;40724;53.196;5.980;2024-02-23T10:34:10;6.03;;;2.60;;
54823;SDS011;40724;53.196;5.980;2024-02-23T10:36:40;6.22;;;2.20;;
54823;SDS011;40724;53.196;5.980;2024-02-23T10:39:10;3.03;;;1.63;;
54823;SDS011;40724;53.196;5.980;2024-02-23T10:41:37;7.10;;;2.53;;
54823;SDS011;40724;53.196;5.980;2024-02-23T10:44:05;5.53;;;2.50;;
54823;SDS011;40724;53.196;5.980;2024-02-23T10:46:33;4.40;;;2.92;;
54823;SDS011;40724;53.196;5.980;2024-02-23T10:48:59;7.55;;;2.15;;
54823;SDS011;40724;53.196;5.980;2024-02-23T10:51:27;5.55;;;2.90;;
54823;SDS011;40724;53.196;5.980;2024-02-23T10:53:54;8.55;;;2.30;;
54823;SDS011;40724;53.196;5.980;2024-02-23T10:56:20;5.32;;;2.13;;
54823;SDS011;40724;53.196;5.980;2024-02-23T10:58:51;4.40;;;1.88;;
54823;SDS011;40724;53.196;5.980;2024-02-23T11:01:17;4.07;;;2.03;;
54823;SDS011;40724;53.196;5.980;2024-02-23T11:03:44;4.68;;;2.28;;
54823;SDS011;40724;53.196;5.980;2024-02-23T11:06:15;4.60;;;2.03;;
54823;SDS011;40724;53.196;5.980;2024-02-23T11:08:46;4.07;;;1.80;;
54823;SDS011;40724;53.196;5.980;2024-02-23T11:11:15;3.47;;;1.75;;
54823;SDS011;40724;53.196;5.980;2024-02-23T11:13:43;7.55;;;2.33;;
54823;SDS011;40724;53.196;5.980;2024-02-23T11:16:09;5.03;;;2.17;;
54823;SDS011;40724;53.196;5.980;2024-02-23T11:18:36;4.50;;;2.08;;
54823;SDS011;40724;53.196;5.980;2024-02-23T11:21:03;4.15;;;2.08;;
54823;SDS011;40724;53.196;5.980;2024-02-23T11:23:47;3.45;;;2.20;;
54823;SDS011;40724;53.196;5.980;2024-02-23T11:26:17;3.30;;;1.50;;
54823;SDS011;40724;53.196;5.980;2024-02-23T11:28:49;3.60;;;1.60;;
54823;SDS011;40724;53.196;5.980;2024-02-23T11:31:21;6.45;;;1.80;;
54823;SDS011;40724;53.196;5.980;2024-02-23T11:33:52;5.32;;;1.95;;
54823;SDS011;40724;53.196;5.980;2024-02-23T11:36:28;3.92;;;1.90;;
54823;SDS011;40724;53.196;5.980;2024-02-23T11:38:56;4.82;;;1.75;;
54823;SDS011;40724;53.196;5.980;2024-02-23T11:41:23;7.53;;;2.03;;
54823;SDS011;40724;53.196;5.980;2024-02-23T11:43:50;5.30;;;1.85;;
54823;SDS011;40724;53.196;5.980;2024-02-23T11:46:16;2.88;;;1.67;;
54823;SDS011;40724;53.196;5.980;2024-02-23T11:48:43;5.95;;;2.40;;
54823;SDS011;40724;53.196;5.980;2024-02-23T11:51:10;4.63;;;1.80;;
54823;SDS011;40724;53.196;5.980;2024-02-23T11:53:39;5.63;;;2.17;;
54823;SDS011;40724;53.196;5.980;2024-02-23T11:56:05;5.90;;;2.30;;
54823;SDS011;40724;53.196;5.980;2024-02-23T11:58:34;3.22;;;1.88;;
54823;SDS011;40724;53.196;5.980;2024-02-23T12:01:01;4.88;;;2.28;;
54823;SDS011;40724;53.196;5.980;2024-02-23T12:03:31;6.53;;;2.38;;
54823;SDS011;40724;53.196;5.980;2024-02-23T12:05:57;2.58;;;1.73;;
54823;SDS011;40724;53.196;5.980;2024-02-23T12:08:24;3.53;;;2.33;;
54823;SDS011;40724;53.196;5.980;2024-02-23T12:10:51;4.65;;;2.08;;
54823;SDS011;40724;53.196;5.980;2024-02-23T12:13:18;4.57;;;1.90;;
54823;SDS011;40724;53.196;5.980;2024-02-23T12:15:44;3.63;;;1.80;;
54823;SDS011;40724;53.196;5.980;2024-02-23T12:18:11;4.45;;;1.85;;
54823;SDS011;40724;53.196;5.980;2024-02-23T12:20:37;3.08;;;1.60;;
54823;SDS011;40724;53.196;5.980;2024-02-23T12:23:03;4.75;;;2.15;;
54823;SDS011;40724;53.196;5.980;2024-02-23T12:25:29;2.95;;;1.95;;
54823;SDS011;40724;53.196;5.980;2024-02-23T12:27:55;6.45;;;2.20;;
54823;SDS011;40724;53.196;5.980;2024-02-23T12:30:22;4.07;;;2.35;;
54823;SDS011;40724;53.196;5.980;2024-02-23T12:32:48;6.55;;;2.65;;
54823;SDS011;40724;53.196;5.980;2024-02-23T12:35:15;8.45;;;2.30;;
54823;SDS011;40724;53.196;5.980;2024-02-23T12:37:42;3.83;;;1.83;;
54823;SDS011;40724;53.196;5.980;2024-02-23T12:40:09;3.50;;;1.80;;
54823;SDS011;40724;53.196;5.980;2024-02-23T12:42:35;5.88;;;1.88;;
54823;SDS011;40724;53.196;5.980;2024-02-23T12:45:01;6.63;;;1.90;;
54823;SDS011;40724;53.196;5.980;2024-02-23T12:47:27;4.50;;;1.90;;
54823;SDS011;40724;53.196;5.980;2024-02-23T12:49:53;5.60;;;2.08;;
54823;SDS011;40724;53.196;5.980;2024-02-23T12:52:19;2.60;;;1.77;;
54823;SDS011;40724;53.196;5.980;2024-02-23T12:54:46;6.95;;;2.13;;
54823;SDS011;40724;53.196;5.980;2024-02-23T12:57:12;3.08;;;1.75;;
54823;SDS011;40724;53.196;5.980;2024-02-23T12:59:38;4.45;;;1.88;;
54823;SDS011;40724;53.196;5.980;2024-02-23T13:02:04;3.67;;;1.67;;
54823;SDS011;40724;53.196;5.980;2024-02-23T13:04:32;4.32;;;2.00;;
54823;SDS011;40724;53.196;5.980;2024-02-23T13:06:58;7.28;;;2.72;;
54823;SDS011;40724;53.196;5.980;2024-02-23T13:09:24;3.90;;;2.53;;
54823;SDS011;40724;53.196;5.980;2024-02-23T13:11:50;5.03;;;2.00;;
54823;SDS011;40724;53.196;5.980;2024-02-23T13:14:16;2.78;;;1.65;;
54823;SDS011;40724;53.196;5.980;2024-02-23T13:16:42;7.00;;;1.88;;
54823;SDS011;40724;53.196;5.980;2024-02-23T13:19:09;5.75;;;1.63;;
54823;SDS011;40724;53.196;5.980;2024-02-23T13:21:35;6.05;;;2.47;;
54823;SDS011;40724;53.196;5.980;2024-02-23T13:24:01;4.95;;;1.88;;
54823;SDS011;40724;53.196;5.980;2024-02-23T13:26:27;3.08;;;1.40;;
54823;SDS011;40724;53.196;5.980;2024-02-23T13:28:53;7.47;;;2.03;;
54823;SDS011;40724;53.196;5.980;2024-02-23T13:31:19;3.08;;;1.92;;
54823;SDS011;40724;53.196;5.980;2024-02-23T13:33:46;4.80;;;2.13;;
54823;SDS011;40724;53.196;5.980;2024-02-23T13:36:12;4.03;;;1.42;;
54823;SDS011;40724;53.196;5.980;2024-02-23T13:38:38;5.10;;;1.60;;
54823;SDS011;40724;53.196;5.980;2024-02-23T13:41:05;2.55;;;1.50;;
54823;SDS011;40724;53.196;5.980;2024-02-23T13:43:31;3.92;;;1.60;;
54823;SDS011;40724;53.196;5.980;2024-02-23T13:45:58;5.32;;;1.65;;
54823;SDS011;40724;53.196;5.980;2024-02-23T13:48:25;1.77;;;0.95;;
54823;SDS011;40724;53.196;5.980;2024-02-23T13:50:51;2.95;;;1.10;;
54823;SDS011;40724;53.196;5.980;2024-02-23T13:53:17;2.72;;;1.05;;
54823;SDS011;40724;53.196;5.980;2024-02-23T13:55:43;3.78;;;1.98;;
54823;SDS011;40724;53.196;5.980;2024-02-23T13:58:09;1.95;;;1.20;;
54823;SDS011;40724;53.196;5.980;2024-02-23T14:00:36;3.53;;;1.17;;
54823;SDS011;40724;53.196;5.980;2024-02-23T14:03:01;2.95;;;1.20;;
54823;SDS011;40724;53.196;5.980;2024-02-23T14:05:28;3.67;;;1.25;;
54823;SDS011;40724;53.196;5.980;2024-02-23T14:07:54;3.17;;;1.60;;
54823;SDS011;40724;53.196;5.980;2024-02-23T14:10:20;4.78;;;1.48;;
54823;SDS011;40724;53.196;5.980;2024-02-23T14:12:46;1.98;;;1.17;;
54823;SDS011;40724;53.196;5.980;2024-02-23T14:15:15;6.13;;;1.55;;
54823;SDS011;40724;53.196;5.980;2024-02-23T14:17:42;3.88;;;1.10;;
54823;SDS011;40724;53.196;5.980;2024-02-23T14:20:08;3.70;;;1.10;;
54823;SDS011;40724;53.196;5.980;2024-02-23T14:22:34;2.72;;;1.15;;
54823;SDS011;40724;53.196;5.980;2024-02-23T14:25:01;2.78;;;1.33;;
54823;SDS011;40724;53.196;5.980;2024-02-23T14:27:26;2.75;;;1.25;;
54823;SDS011;40724;53.196;5.980;2024-02-23T14:29:53;2.70;;;1.42;;
54823;SDS011;40724;53.196;5.980;2024-02-23T14:32:19;5.68;;;1.75;;
54823;SDS011;40724;53.196;5.980;2024-02-23T14:34:45;3.97;;;1.50;;
54823;SDS011;40724;53.196;5.980;2024-02-23T14:37:11;3.42;;;1.80;;
54823;SDS011;40724;53.196;5.980;2024-02-23T14:39:37;3.30;;;1.27;;
54823;SDS011;40724;53.196;5.980;2024-02-23T14:42:02;9.45;;;1.45;;